Time;durP1;ratioP1;P1;durP2;ratioP2;P2;SDS_P1;SDS_P2;PMS_P1;PMS_P2;Temp;Humidity;BMP_temperature;BMP_pressure;BME280_temperature;BME280_humidity;BME280_pressure;Samples;Min_cycle;Max_cycle;Signal;HPM_P1;HPM_P2
2021/09/19 00:01:54;;;;;;;;;;;;;;;13.65;91.94;101555.69;5049285;28;19932;-54
2021/09/19 00:04:21;;;;;;;;;;;;;;;13.55;91.96;101557.25;5049599;28;20430;-52
2021/09/19 00:06:47;;;;;;;;;;;;;;;13.55;92.18;101563.38;5049922;28;20391;-48
2021/09/19 00:09:14;;;;;;;;;;;;;;;13.52;92.52;101558.28;5049900;28;19929;-51
2021/09/19 00:11:43;;;;;;;;;;;;;;;13.53;92.45;101549.44;5065329;28;20402;-52
2021/09/19 00:14:11;;;;;;;;;;;;;;;13.55;92.78;101546.69;5049254;28;19998;-50
2021/09/19 00:16:37;;;;;;;;;;;;;;;13.54;92.67;101545.84;5050296;28;20370;-51
2021/09/19 00:19:04;;;;;;;;;;;;;;;13.53;92.98;101541.50;5050073;28;19925;-51
2021/09/19 00:21:31;;;;;;;;;;;;;;;13.48;92.85;101540.94;5049746;28;19925;-51
2021/09/19 00:23:57;;;;;;;;;;;;;;;13.50;92.98;101536.44;5065339;28;19925;-50
2021/09/19 00:26:24;;;;;;;;;;;;;;;13.47;93.42;101526.91;5050254;28;20016;-52
2021/09/19 00:28:51;;;;;;;;;;;;;;;13.45;93.29;101531.44;5046985;28;21081;-51
2021/09/19 00:31:17;;;;;;;;;;;;;;;13.44;93.37;101521.84;5050309;28;20334;-53
2021/09/19 00:33:44;;;;;;;;;;;;;;;13.39;93.73;101525.72;5049774;28;20401;-51
2021/09/19 00:36:11;;;;;;;;;;;;;;;13.38;93.94;101521.41;5048835;28;19925;-49
2021/09/19 00:38:37;;;;;;;;;;;;;;;13.32;94.20;101526.09;5065130;28;19929;-53
2021/09/19 00:41:04;;;;;;;;;;;;;;;13.33;94.04;101525.16;5050099;28;20451;-50
2021/09/19 00:43:31;;;;;;;;;;;;;;;13.34;94.36;101524.19;5048265;28;19925;-53
2021/09/19 00:45:57;;;;;;;;;;;;;;;13.32;94.15;101530.50;5050133;28;20295;-49
2021/09/19 00:48:24;;;;;;;;;;;;;;;13.35;93.88;101525.91;5049738;28;19947;-49
2021/09/19 00:50:50;;;;;;;;;;;;;;;13.37;93.75;101525.81;5048691;28;20426;-52
2021/09/19 00:53:17;;;;;;;;;;;;;;;13.33;93.93;101527.78;5049084;28;20027;-53
2021/09/19 00:55:44;;;;;;;;;;;;;;;13.29;94.06;101525.44;5050167;28;19925;-53
2021/09/19 00:58:11;;;;;;;;;;;;;;;13.18;94.71;101523.50;5063500;28;19925;-50
2021/09/19 01:00:38;;;;;;;;;;;;;;;13.19;94.55;101523.41;5050055;28;19925;-52
2021/09/19 01:03:05;;;;;;;;;;;;;;;13.12;95.01;101523.91;5064914;28;19925;-53
2021/09/19 01:05:32;;;;;;;;;;;;;;;13.15;95.09;101524.53;5049635;28;20395;-41
2021/09/19 01:07:58;;;;;;;;;;;;;;;13.19;94.77;101527.84;5052042;28;20410;-52
2021/09/19 01:10:25;;;;;;;;;;;;;;;13.07;95.13;101521.56;5053658;28;19964;-51
2021/09/19 01:12:53;;;;;;;;;;;;;;;13.10;94.94;101526.66;5051960;28;19929;-48
2021/09/19 01:15:21;;;;;;;;;;;;;;;13.07;95.54;101518.91;5053068;28;19986;-42
2021/09/19 01:17:47;;;;;;;;;;;;;;;13.08;95.44;101522.44;5052576;28;19947;-49
2021/09/19 01:20:14;;;;;;;;;;;;;;;13.05;96.23;101520.81;5052929;28;19964;-51
2021/09/19 01:22:46;;;;;;;;;;;;;;;13.09;95.79;101518.81;5068596;28;19936;-50
2021/09/19 01:25:13;;;;;;;;;;;;;;;13.08;95.93;101522.44;5068403;28;19935;-52
2021/09/19 01:27:42;;;;;;;;;;;;;;;13.12;95.26;101523.91;5051375;28;19979;-54
2021/09/19 01:30:09;;;;;;;;;;;;;;;13.08;95.38;101523.25;5052685;28;20042;-54
2021/09/19 01:32:37;;;;;;;;;;;;;;;13.04;95.93;101523.56;5053046;28;19924;-49
2021/09/19 01:35:04;;;;;;;;;;;;;;;13.05;95.75;101519.97;5052933;28;19924;-50
2021/09/19 01:37:31;;;;;;;;;;;;;;;13.05;96.09;101518.19;5052290;28;19936;-51
2021/09/19 01:39:58;;;;;;;;;;;;;;;13.12;95.69;101522.09;5053223;28;19925;-52
2021/09/19 01:42:25;;;;;;;;;;;;;;;13.08;95.90;101523.25;5066597;28;20670;-52
2021/09/19 01:44:52;;;;;;;;;;;;;;;13.11;96.00;101520.41;5052857;28;19924;-53
2021/09/19 01:47:19;;;;;;;;;;;;;;;13.02;96.67;101521.03;5067977;28;19952;-53
2021/09/19 01:49:46;;;;;;;;;;;;;;;12.98;97.23;101520.38;5068187;28;19924;-49
2021/09/19 01:52:13;;;;;;;;;;;;;;;12.91;96.89;101513.81;5052443;28;19951;-50
2021/09/19 01:54:40;;;;;;;;;;;;;;;12.91;97.35;101510.31;5051921;28;20291;-53
2021/09/19 01:57:06;;;;;;;;;;;;;;;12.92;96.94;101512.00;5052026;28;20387;-53
2021/09/19 01:59:33;;;;;;;;;;;;;;;12.96;97.03;101511.69;5051167;28;19929;-51
2021/09/19 02:02:00;;;;;;;;;;;;;;;12.91;97.34;101497.97;5067718;28;20048;-52
2021/09/19 02:04:27;;;;;;;;;;;;;;;12.91;97.73;101505.03;5052083;28;19982;-51
2021/09/19 02:06:54;;;;;;;;;;;;;;;12.91;97.29;101499.75;5052575;28;20405;-50
2021/09/19 02:09:20;;;;;;;;;;;;;;;12.93;97.40;101497.88;5052809;28;20379;-53
2021/09/19 02:11:47;;;;;;;;;;;;;;;12.90;97.82;101493.63;5051934;28;19974;-51
2021/09/19 02:14:13;;;;;;;;;;;;;;;12.88;97.82;101495.50;5051170;28;19959;-49
2021/09/19 02:16:40;;;;;;;;;;;;;;;12.97;97.71;101488.78;5052371;28;19963;-53
2021/09/19 02:19:07;;;;;;;;;;;;;;;12.85;98.37;101491.25;5051323;28;19935;-55
2021/09/19 02:21:33;;;;;;;;;;;;;;;12.88;98.58;101486.75;5051966;28;20461;-54
2021/09/19 02:24:00;;;;;;;;;;;;;;;12.88;98.87;101494.66;5052115;28;20447;-53
2021/09/19 02:26:26;;;;;;;;;;;;;;;12.88;98.73;101490.22;5051887;28;19982;-49
2021/09/19 02:28:53;;;;;;;;;;;;;;;12.91;98.57;101483.91;5050538;28;19929;-52
2021/09/19 02:31:20;;;;;;;;;;;;;;;12.99;98.21;101481.59;5051780;28;19971;-53
2021/09/19 02:33:46;;;;;;;;;;;;;;;12.93;98.27;101477.56;5051415;28;20023;-49
2021/09/19 02:36:13;;;;;;;;;;;;;;;12.95;98.23;101482.75;5052229;28;19936;-49
2021/09/19 02:38:40;;;;;;;;;;;;;;;12.95;98.36;101485.38;5051919;28;20399;-49
2021/09/19 02:41:06;;;;;;;;;;;;;;;12.90;98.28;101483.06;5052201;28;19929;-52
2021/09/19 02:43:33;;;;;;;;;;;;;;;12.93;98.52;101472.28;5049870;28;19998;-54
2021/09/19 02:46:01;;;;;;;;;;;;;;;12.92;98.35;101478.50;5051879;28;19925;-52
2021/09/19 02:48:27;;;;;;;;;;;;;;;12.92;98.12;101478.50;5051984;28;19929;-50
2021/09/19 02:50:54;;;;;;;;;;;;;;;12.89;98.58;101480.53;5051506;28;20443;-49
2021/09/19 02:53:21;;;;;;;;;;;;;;;12.85;98.69;101471.94;5051035;28;19929;-52
2021/09/19 02:55:47;;;;;;;;;;;;;;;12.94;98.15;101474.00;5052117;28;19928;-49
2021/09/19 02:58:14;;;;;;;;;;;;;;;12.88;98.47;101469.09;5049707;28;19986;-49
2021/09/19 03:00:41;;;;;;;;;;;;;;;12.90;98.47;101472.50;5051273;28;19957;-51
2021/09/19 03:03:07;;;;;;;;;;;;;;;12.89;98.76;101465.53;5051608;28;19929;-53
2021/09/19 03:05:34;;;;;;;;;;;;;;;12.92;98.60;101467.97;5051245;28;19925;-48
2021/09/19 03:08:01;;;;;;;;;;;;;;;12.80;98.96;101466.97;5049758;28;19925;-51
2021/09/19 03:10:27;;;;;;;;;;;;;;;12.79;99.18;101467.09;5051629;28;19955;-49
2021/09/19 03:12:54;;;;;;;;;;;;;;;12.83;99.22;101476.50;5049628;28;20294;-43
2021/09/19 03:15:21;;;;;;;;;;;;;;;12.84;99.00;101468.47;5066498;28;20279;-41
2021/09/19 03:17:47;;;;;;;;;;;;;;;12.90;99.14;101474.28;5066877;28;19932;-42
2021/09/19 03:20:15;;;;;;;;;;;;;;;12.88;99.19;101470.91;5066496;28;19924;-42
2021/09/19 03:22:42;;;;;;;;;;;;;;;12.88;99.28;101479.66;5050261;28;20346;-41
2021/09/19 03:25:10;;;;;;;;;;;;;;;12.91;99.26;101482.13;5050722;28;19935;-41
2021/09/19 03:27:37;;;;;;;;;;;;;;;12.93;99.18;101477.56;5049326;28;19971;-42
2021/09/19 03:30:06;;;;;;;;;;;;;;;12.97;98.93;101480.88;5050717;28;19925;-41
2021/09/19 03:32:33;;;;;;;;;;;;;;;12.98;98.79;101482.56;5049764;28;19932;-42
2021/09/19 03:34:59;;;;;;;;;;;;;;;13.00;98.96;101483.31;5050384;28;20393;-44
2021/09/19 03:37:26;;;;;;;;;;;;;;;13.00;98.92;101478.84;5049421;28;20378;-43
2021/09/19 03:39:53;;;;;;;;;;;;;;;13.01;98.84;101470.00;5051025;28;20445;-44
2021/09/19 03:42:19;;;;;;;;;;;;;;;13.01;98.60;101479.72;5048263;28;19925;-42
2021/09/19 03:44:47;;;;;;;;;;;;;;;13.02;99.00;101469.06;5050822;28;19925;-41
2021/09/19 03:47:13;;;;;;;;;;;;;;;13.06;98.62;101472.34;5049505;28;20379;-41
2021/09/19 03:49:40;;;;;;;;;;;;;;;13.05;98.58;101467.16;5050443;28;19925;-41
2021/09/19 03:52:07;;;;;;;;;;;;;;;13.09;98.26;101466.88;5050294;28;19929;-42
2021/09/19 03:54:33;;;;;;;;;;;;;;;13.10;97.85;101468.56;5050789;28;20388;-41
2021/09/19 03:57:01;;;;;;;;;;;;;;;13.05;98.40;101472.44;5049759;28;19928;-41
2021/09/19 03:59:27;;;;;;;;;;;;;;;12.95;98.70;101469.56;5048724;28;20444;-44
2021/09/19 04:01:54;;;;;;;;;;;;;;;12.89;99.04;101470.81;5050548;28;19929;-43
2021/09/19 04:04:21;;;;;;;;;;;;;;;12.94;98.47;101466.06;5050098;28;20383;-42
2021/09/19 04:06:48;;;;;;;;;;;;;;;12.89;98.69;101470.81;5048581;28;19979;-42
2021/09/19 04:09:14;;;;;;;;;;;;;;;12.92;98.20;101470.59;5049042;28;20397;-41
2021/09/19 04:11:41;;;;;;;;;;;;;;;12.92;98.26;101478.50;5049430;28;19952;-41
2021/09/19 04:14:08;;;;;;;;;;;;;;;13.01;97.57;101472.63;5049152;28;20002;-41
2021/09/19 04:16:34;;;;;;;;;;;;;;;12.94;97.77;101473.13;5050323;28;19975;-39
2021/09/19 04:19:01;;;;;;;;;;;;;;;12.96;97.60;101474.72;5049963;28;20644;-40
2021/09/19 04:21:30;;;;;;;;;;;;;;;12.92;97.24;101470.59;5049966;28;20292;-41
2021/09/19 04:23:57;;;;;;;;;;;;;;;12.90;97.21;101472.50;5050072;28;19929;-41
2021/09/19 04:26:23;;;;;;;;;;;;;;;12.92;97.19;101472.41;5048948;28;20327;-40
2021/09/19 04:28:52;;;;;;;;;;;;;;;12.78;97.51;101475.94;5047033;28;20392;-43
2021/09/19 04:31:19;;;;;;;;;;;;;;;12.74;97.69;101474.44;5049086;28;19924;-41
2021/09/19 04:33:45;;;;;;;;;;;;;;;12.79;97.19;101475.84;5049455;28;19925;-40
2021/09/19 04:36:12;;;;;;;;;;;;;;;12.77;97.42;101471.59;5049976;28;20300;-51
2021/09/19 04:38:39;;;;;;;;;;;;;;;12.77;97.26;101476.88;5048172;28;20015;-47
2021/09/19 04:41:05;;;;;;;;;;;;;;;12.62;98.23;101473.44;5065206;28;19924;-43
2021/09/19 04:43:32;;;;;;;;;;;;;;;12.55;98.20;101472.13;5048209;28;19924;-52
2021/09/19 04:45:59;;;;;;;;;;;;;;;12.63;97.90;101475.97;5049723;28;19975;-40
2021/09/19 04:48:25;;;;;;;;;;;;;;;12.63;97.46;101470.69;5050018;28;19964;-52
2021/09/19 04:50:52;;;;;;;;;;;;;;;12.61;97.64;101469.97;5048340;28;19925;-49
2021/09/19 04:53:19;;;;;;;;;;;;;;;12.55;98.33;101472.97;5049255;28;19944;-52
2021/09/19 04:55:45;;;;;;;;;;;;;;;12.54;98.30;101475.72;5049250;28;20043;-52
2021/09/19 04:58:12;;;;;;;;;;;;;;;12.50;97.98;101465.34;5047768;28;20351;-50
2021/09/19 05:00:39;;;;;;;;;;;;;;;12.52;97.98;101473.16;5050095;28;20007;-52
2021/09/19 05:03:05;;;;;;;;;;;;;;;12.51;98.07;101472.31;5049892;28;19928;-49
2021/09/19 05:05:32;;;;;;;;;;;;;;;12.42;98.42;101472.03;5049569;28;19931;-50
2021/09/19 05:07:59;;;;;;;;;;;;;;;12.42;98.46;101467.63;5049425;28;20387;-48
2021/09/19 05:10:26;;;;;;;;;;;;;;;12.44;98.08;101464.91;5065151;28;19928;-52
2021/09/19 05:12:52;;;;;;;;;;;;;;;12.40;98.29;101468.66;5048268;28;19956;-48
2021/09/19 05:15:19;;;;;;;;;;;;;;;12.37;98.75;101463.59;5048143;28;20394;-49
2021/09/19 05:17:46;;;;;;;;;;;;;;;12.37;98.51;101466.25;5049468;28;19929;-52
2021/09/19 05:20:12;;;;;;;;;;;;;;;12.29;99.16;101466.72;5049100;28;19931;-52
2021/09/19 05:22:39;;;;;;;;;;;;;;;12.30;98.97;101465.78;5049239;28;19963;-47
2021/09/19 05:25:06;;;;;;;;;;;;;;;12.32;98.86;101471.78;5050199;28;19929;-52
2021/09/19 05:27:32;;;;;;;;;;;;;;;12.32;98.66;101471.78;5047250;28;19924;-49
2021/09/19 05:30:00;;;;;;;;;;;;;;;12.28;98.89;101465.00;5049750;28;19925;-40
2021/09/19 05:32:26;;;;;;;;;;;;;;;12.29;98.97;101462.25;5049391;28;19990;-40
2021/09/19 05:34:53;;;;;;;;;;;;;;;12.25;99.28;101470.47;5049221;28;20012;-43
2021/09/19 05:37:20;;;;;;;;;;;;;;;12.31;98.87;101470.94;5049000;28;19931;-40
2021/09/19 05:39:46;;;;;;;;;;;;;;;12.24;98.87;101468.78;5049479;28;19929;-40
2021/09/19 05:42:13;;;;;;;;;;;;;;;12.28;98.90;101475.56;5063461;28;20383;-40
2021/09/19 05:44:39;;;;;;;;;;;;;;;12.19;99.52;101477.00;5049079;28;19933;-40
2021/09/19 05:47:06;;;;;;;;;;;;;;;12.11;99.64;101479.25;5049439;28;19929;-42
2021/09/19 05:49:33;;;;;;;;;;;;;;;12.12;99.91;101481.78;5049212;28;20372;-42
2021/09/19 05:51:59;;;;;;;;;;;;;;;12.21;99.17;101477.72;5049092;28;20277;-39
2021/09/19 05:54:26;;;;;;;;;;;;;;;12.19;99.64;101477.00;5050844;28;19936;-41
2021/09/19 05:56:53;;;;;;;;;;;;;;;12.14;99.62;101473.78;5051582;28;20396;-41
2021/09/19 05:59:19;;;;;;;;;;;;;;;12.00;100.00;101474.63;5051918;28;20015;-42
2021/09/19 06:01:46;;;;;;;;;;;;;;;12.06;99.88;101471.59;5051886;28;19933;-40
2021/09/19 06:04:13;;;;;;;;;;;;;;;12.09;100.00;101476.72;5051521;28;20372;-42
2021/09/19 06:06:39;;;;;;;;;;;;;;;12.12;100.00;101475.66;5052798;28;20406;-42
2021/09/19 06:09:06;;;;;;;;;;;;;;;12.15;100.00;101481.59;5052675;28;19925;-41
2021/09/19 06:11:33;;;;;;;;;;;;;;;12.16;100.00;101485.06;5052788;28;19983;-40
2021/09/19 06:13:59;;;;;;;;;;;;;;;12.18;99.79;101483.19;5050433;28;19925;-40
2021/09/19 06:16:26;;;;;;;;;;;;;;;12.23;99.92;101491.66;5051411;28;19948;-41
2021/09/19 06:18:53;;;;;;;;;;;;;;;12.24;100.00;101490.72;5052340;28;19925;-42
2021/09/19 06:21:20;;;;;;;;;;;;;;;12.27;100.00;101500.22;5050735;28;19960;-42
2021/09/19 06:23:46;;;;;;;;;;;;;;;12.31;99.98;101499.97;5052489;28;19936;-43
2021/09/19 06:26:13;;;;;;;;;;;;;;;12.35;99.93;101500.59;5052255;28;19924;-42
2021/09/19 06:28:40;;;;;;;;;;;;;;;12.36;100.00;101496.19;5051123;28;19925;-41
2021/09/19 06:31:06;;;;;;;;;;;;;;;12.38;99.59;101491.66;5051400;28;19929;-41
2021/09/19 06:33:34;;;;;;;;;;;;;;;12.39;99.83;101493.34;5052113;28;19928;-44
2021/09/19 06:36:03;;;;;;;;;;;;;;;12.49;99.27;101482.13;5052579;28;19982;-41
2021/09/19 06:38:29;;;;;;;;;;;;;;;12.51;98.66;101488.13;5051282;28;19929;-41
2021/09/19 06:40:56;;;;;;;;;;;;;;;12.54;98.69;101489.72;5052540;28;19936;-43
2021/09/19 06:43:22;;;;;;;;;;;;;;;12.62;98.48;101484.81;5065027;28;20046;-41
2021/09/19 06:45:49;;;;;;;;;;;;;;;12.74;97.68;101485.00;5051989;28;20292;-40
2021/09/19 06:48:16;;;;;;;;;;;;;;;12.62;98.31;101487.47;5051754;28;19924;-40
2021/09/19 06:50:43;;;;;;;;;;;;;;;12.67;97.96;101495.09;5051527;28;19979;-41
2021/09/19 06:53:09;;;;;;;;;;;;;;;12.75;97.61;101492.81;5051269;28;19925;-40
2021/09/19 06:55:36;;;;;;;;;;;;;;;12.77;97.55;101493.53;5051529;28;20409;-43
2021/09/19 06:58:03;;;;;;;;;;;;;;;12.80;97.35;101500.44;5049937;28;19975;-52
2021/09/19 07:00:29;;;;;;;;;;;;;;;12.83;97.37;101494.97;5051067;28;19925;-50
2021/09/19 07:02:56;;;;;;;;;;;;;;;12.88;97.44;101499.94;5051793;28;20310;-47
2021/09/19 07:05:23;;;;;;;;;;;;;;;12.94;96.99;101503.03;5050466;28;19925;-41
2021/09/19 07:07:50;;;;;;;;;;;;;;;13.06;96.35;101509.31;5050806;28;19931;-40
2021/09/19 07:10:16;;;;;;;;;;;;;;;13.06;97.04;101498.75;5051523;28;19925;-40
2021/09/19 07:12:43;;;;;;;;;;;;;;;13.05;97.07;101498.84;5049826;28;20018;-43
2021/09/19 07:15:10;;;;;;;;;;;;;;;13.07;96.84;101503.06;5051392;28;20376;-40
2021/09/19 07:17:36;;;;;;;;;;;;;;;13.17;96.02;101506.81;5051661;28;19928;-41
2021/09/19 07:20:03;;;;;;;;;;;;;;;13.19;96.26;101504.06;5051203;28;19933;-42
2021/09/19 07:22:30;;;;;;;;;;;;;;;13.28;96.17;101503.47;5066170;28;19933;-43
2021/09/19 07:24:57;;;;;;;;;;;;;;;13.31;96.09;101507.72;5051283;28;19929;-41
2021/09/19 07:27:23;;;;;;;;;;;;;;;13.32;96.21;101509.38;5049061;28;19928;-41
2021/09/19 07:29:50;;;;;;;;;;;;;;;13.34;96.23;101504.84;5066442;28;19928;-40
2021/09/19 07:32:17;;;;;;;;;;;;;;;13.47;96.39;101504.91;5050978;28;20315;-40
2021/09/19 07:34:44;;;;;;;;;;;;;;;13.58;96.19;101506.81;5050787;28;19925;-40
2021/09/19 07:37:10;;;;;;;;;;;;;;;13.76;95.43;101502.13;5065992;28;19925;-40
2021/09/19 07:39:37;;;;;;;;;;;;;;;13.89;95.18;101502.09;5051303;28;19929;-42
2021/09/19 07:42:04;;;;;;;;;;;;;;;13.84;94.58;101511.19;5048677;28;19936;-40
2021/09/19 07:44:33;;;;;;;;;;;;;;;13.99;93.94;101517.25;5064989;28;19924;-40
2021/09/19 07:47:01;;;;;;;;;;;;;;;14.12;93.76;101519.03;5051302;28;19925;-40
2021/09/19 07:49:28;;;;;;;;;;;;;;;14.39;92.75;101521.53;5065751;28;20007;-41
2021/09/19 07:51:55;;;;;;;;;;;;;;;14.66;91.85;101528.50;5065425;28;20186;-40
2021/09/19 07:54:22;;;;;;;;;;;;;;;14.90;90.65;101517.94;5049344;28;19932;-41
2021/09/19 07:56:48;;;;;;;;;;;;;;;15.14;89.60;101528.53;5049533;28;20380;-41
2021/09/19 07:59:15;;;;;;;;;;;;;;;15.48;88.40;101528.69;5064682;28;19925;-42
2021/09/19 08:01:41;;;;;;;;;;;;;;;15.56;87.13;101528.09;5050235;28;19924;-45
2021/09/19 08:04:08;;;;;;;;;;;;;;;15.66;86.14;101534.38;5050400;28;19929;-43
2021/09/19 08:06:35;;;;;;;;;;;;;;;15.86;86.38;101524.94;5048863;28;19924;-43
2021/09/19 08:09:02;;;;;;;;;;;;;;;16.17;84.20;101527.03;5049266;28;19935;-44
2021/09/19 08:11:29;;;;;;;;;;;;;;;16.26;83.57;101531.63;5050282;28;19987;-46
2021/09/19 08:14:05;;;;;;;;;;;;;;;16.36;83.59;101526.44;5048496;28;19936;-44
2021/09/19 08:16:35;;;;;;;;;;;;;;;16.63;82.35;101534.00;5049375;28;19960;-43
2021/09/19 08:19:02;;;;;;;;;;;;;;;16.84;82.32;101534.09;5050265;28;20043;-45
2021/09/19 08:21:29;;;;;;;;;;;;;;;17.05;80.22;101525.38;5049742;28;19933;-48
2021/09/19 08:23:56;;;;;;;;;;;;;;;17.29;78.72;101527.84;5049909;28;19935;-46
2021/09/19 08:26:22;;;;;;;;;;;;;;;17.45;78.63;101530.06;5050253;28;20390;-45
2021/09/19 08:28:49;;;;;;;;;;;;;;;17.51;79.54;101528.72;5048210;28;19929;-44
2021/09/19 08:31:16;;;;;;;;;;;;;;;17.81;77.58;101527.09;5050238;28;19929;-44
2021/09/19 08:33:43;;;;;;;;;;;;;;;18.01;76.22;101528.91;5049394;28;19925;-45
2021/09/19 08:36:09;;;;;;;;;;;;;;;18.18;75.64;101526.59;5049829;28;19971;-43
2021/09/19 08:38:36;;;;;;;;;;;;;;;18.31;74.67;101537.88;5049747;28;20265;-44
2021/09/19 08:41:03;;;;;;;;;;;;;;;18.38;74.12;101532.88;5050156;28;20391;-43
2021/09/19 08:43:30;;;;;;;;;;;;;;;18.55;73.76;101534.03;5046478;28;19999;-40
2021/09/19 08:45:56;;;;;;;;;;;;;;;18.57;72.89;101532.09;5049519;28;19982;-44
2021/09/19 08:48:23;;;;;;;;;;;;;;;18.68;72.90;101539.97;5049945;28;19929;-43
2021/09/19 08:50:51;;;;;;;;;;;;;;;18.67;73.05;101540.94;5049660;28;19977;-45
2021/09/19 08:53:18;;;;;;;;;;;;;;;18.89;71.52;101537.22;5048714;28;20319;-45
2021/09/19 08:55:45;;;;;;;;;;;;;;;18.99;71.04;101536.41;5049514;28;20319;-43
2021/09/19 08:58:12;;;;;;;;;;;;;;;19.09;71.14;101543.44;5046714;28;19960;-41
2021/09/19 09:00:39;;;;;;;;;;;;;;;19.22;70.70;101544.97;5050050;28;19971;-50
2021/09/19 09:03:12;;;;;;;;;;;;;;;19.41;69.91;101536.13;5049136;28;19978;-54
2021/09/19 09:05:40;;;;;;;;;;;;;;;19.70;69.99;101541.44;5064902;28;19935;-48
2021/09/19 09:08:07;;;;;;;;;;;;;;;19.68;68.54;101538.06;5049245;28;19925;-44
2021/09/19 09:10:43;;;;;;;;;;;;;;;19.91;68.81;101538.63;5049427;28;20334;-48
2021/09/19 09:13:11;;;;;;;;;;;;;;;19.93;69.19;101539.31;5047700;28;19975;-48
2021/09/19 09:15:39;;;;;;;;;;;;;;;20.05;67.56;101529.28;5049336;28;19936;-51
2021/09/19 09:18:07;;;;;;;;;;;;;;;19.94;68.42;101537.50;5050084;28;19968;-42
2021/09/19 09:20:53;;;;;;;;;;;;;;;20.07;67.13;101531.84;5048820;28;19929;-52
2021/09/19 09:23:24;;;;;;;;;;;;;;;20.24;66.15;101524.88;5048354;28;19956;-52
2021/09/19 09:26:07;;;;;;;;;;;;;;;20.36;66.12;101534.38;5049189;28;19967;-50
2021/09/19 09:28:44;;;;;;;;;;;;;;;20.51;64.75;101539.25;5048226;28;19986;-49
2021/09/19 09:31:22;;;;;;;;;;;;;;;20.34;65.95;101538.19;5051796;28;19925;-52
2021/09/19 09:34:07;;;;;;;;;;;;;;;20.14;65.70;101542.75;5052137;28;20023;-52
2021/09/19 09:36:52;;;;;;;;;;;;;;;20.40;65.21;101538.44;5051582;28;19925;-50
2021/09/19 09:39:28;;;;;;;;;;;;;;;20.57;65.29;101533.28;5052824;28;20395;-50
2021/09/19 09:41:56;;;;;;;;;;;;;;;20.75;62.31;101528.88;5052004;28;19928;-52
2021/09/19 09:44:23;;;;;;;;;;;;;;;20.79;60.99;101541.94;5052037;28;19925;-51
2021/09/19 09:46:50;;;;;;;;;;;;;;;21.04;60.36;101527.81;5053147;28;19979;-51
2021/09/19 09:49:20;;;;;;;;;;;;;;;21.34;59.32;101535.63;5051519;28;19925;-47
2021/09/19 09:51:47;;;;;;;;;;;;;;;21.40;58.09;101529.63;5053247;28;19982;-50
2021/09/19 09:54:14;;;;;;;;;;;;;;;21.56;58.13;101534.31;5067985;28;19925;-51
2021/09/19 09:56:43;;;;;;;;;;;;;;;21.38;57.37;101526.31;5052890;28;20375;-51
2021/09/19 09:59:10;;;;;;;;;;;;;;;21.80;58.64;101533.66;5067031;28;19933;-53
2021/09/19 10:01:37;;;;;;;;;;;;;;;22.10;57.74;101531.47;5051367;28;19932;-49
2021/09/19 10:04:09;;;;;;;;;;;;;;;22.37;56.73;101527.78;5067203;28;20406;-50
2021/09/19 10:06:35;;;;;;;;;;;;;;;22.58;54.89;101523.84;5052492;28;19979;-54
2021/09/19 10:09:02;;;;;;;;;;;;;;;22.64;54.53;101523.19;5067882;28;19964;-49
2021/09/19 10:11:29;;;;;;;;;;;;;;;22.96;53.78;101522.44;5051532;28;20390;-52
2021/09/19 10:13:55;;;;;;;;;;;;;;;22.90;52.89;101524.94;5050697;28;19928;-50
2021/09/19 10:16:22;;;;;;;;;;;;;;;22.70;52.74;101519.00;5067822;28;19929;-49
2021/09/19 10:18:49;;;;;;;;;;;;;;;22.77;54.63;101515.53;5052586;28;19928;-50
2021/09/19 10:21:18;;;;;;;;;;;;;;;23.19;53.12;101518.28;5052060;28;19925;-47
2021/09/19 10:23:45;;;;;;;;;;;;;;;22.95;52.91;101512.69;5068020;28;19925;-50
2021/09/19 10:26:13;;;;;;;;;;;;;;;23.05;53.09;101503.66;5034610;28;19925;-49
2021/09/19 10:28:39;;;;;;;;;;;;;;;23.34;52.73;101513.94;5049604;28;19978;-49
2021/09/19 10:31:09;;;;;;;;;;;;;;;23.62;51.37;101517.09;5052151;28;20358;-54
2021/09/19 10:33:49;;;;;;;;;;;;;;;23.52;51.17;101512.91;5052581;28;19935;-53
2021/09/19 10:36:35;;;;;;;;;;;;;;;23.26;51.66;101514.78;5067310;28;19970;-49
2021/09/19 10:39:20;;;;;;;;;;;;;;;23.58;51.08;101509.56;5051536;28;20337;-50
2021/09/19 10:42:15;;;;;;;;;;;;;;;23.65;50.84;101509.72;5050473;28;19932;-53
2021/09/19 10:44:44;;;;;;;;;;;;;;;23.57;51.42;101507.88;5050146;28;19924;-54
2021/09/19 10:47:11;;;;;;;;;;;;;;;23.72;50.85;101506.16;5051601;28;19991;-53
2021/09/19 10:49:41;;;;;;;;;;;;;;;23.67;50.45;101505.84;5033716;28;20024;-54
2021/09/19 10:52:08;;;;;;;;;;;;;;;23.86;49.45;101509.16;5051308;28;19929;-55
2021/09/19 10:54:50;;;;;;;;;;;;;;;23.99;48.05;101506.81;5067099;28;19925;-53
2021/09/19 10:57:20;;;;;;;;;;;;;;;24.36;47.90;101510.69;5050120;28;19932;-53
2021/09/19 11:00:06;;;;;;;;;;;;;;;24.24;48.35;101510.25;5066835;28;19937;-54
2021/09/19 11:02:33;;;;;;;;;;;;;;;24.51;48.70;101504.59;5051471;28;19925;-53
2021/09/19 11:05:18;;;;;;;;;;;;;;;24.83;47.10;101513.50;5049964;28;19933;-53
2021/09/19 11:07:45;;;;;;;;;;;;;;;25.45;45.51;101507.16;5051092;28;19925;-54
2021/09/19 11:10:14;;;;;;;;;;;;;;;25.57;46.85;101505.69;5051569;28;19925;-52
2021/09/19 11:12:44;;;;;;;;;;;;;;;26.03;46.61;101506.56;5049914;28;19929;-56
2021/09/19 11:15:14;;;;;;;;;;;;;;;25.95;44.69;101511.00;5050995;28;19932;-54
2021/09/19 11:17:44;;;;;;;;;;;;;;;25.91;45.26;101506.19;5051828;28;19925;-55
2021/09/19 11:20:12;;;;;;;;;;;;;;;26.09;43.45;101497.75;5050911;28;19936;-53
2021/09/19 11:22:58;;;;;;;;;;;;;;;26.15;43.18;101503.25;5049342;28;19987;-52
2021/09/19 11:25:25;;;;;;;;;;;;;;;26.07;44.54;101508.72;5051090;28;19979;-53
2021/09/19 11:27:52;;;;;;;;;;;;;;;26.20;44.00;101513.44;5049859;28;19925;-52
2021/09/19 11:30:28;;;;;;;;;;;;;;;25.93;44.84;101514.91;5065943;28;19975;-53
2021/09/19 11:32:54;;;;;;;;;;;;;;;25.53;44.93;101512.47;5050910;28;19971;-52
2021/09/19 11:35:21;;;;;;;;;;;;;;;25.77;44.44;101507.88;5050482;28;19929;-54
2021/09/19 11:37:54;;;;;;;;;;;;;;;25.09;46.25;101510.47;5049697;28;19932;-53
2021/09/19 11:40:22;;;;;;;;;;;;;;;24.94;47.39;101507.72;5048223;28;20296;-52
2021/09/19 11:42:51;;;;;;;;;;;;;;;24.85;46.25;101512.28;5048539;28;19925;-53
2021/09/19 11:45:18;;;;;;;;;;;;;;;24.99;45.57;101499.91;5050216;28;19924;-52
2021/09/19 11:47:46;;;;;;;;;;;;;;;25.51;45.65;101513.66;5050608;28;20376;-53
2021/09/19 11:50:13;;;;;;;;;;;;;;;25.33;44.04;101512.13;5049686;28;19932;-54
2021/09/19 11:52:40;;;;;;;;;;;;;;;25.66;44.85;101514.53;5049257;28;19978;-51
2021/09/19 11:55:07;;;;;;;;;;;;;;;25.40;45.10;101510.41;5065875;28;19929;-53
2021/09/19 11:57:33;;;;;;;;;;;;;;;25.46;44.25;101509.66;5064029;28;20036;-54
2021/09/19 12:00:05;;;;;;;;;;;;;;;25.64;44.31;101512.00;5065643;28;19960;-55
2021/09/19 12:02:31;;;;;;;;;;;;;;;25.21;45.41;101510.84;5050021;28;20277;-54
2021/09/19 12:04:59;;;;;;;;;;;;;;;24.93;46.20;101514.94;5065422;28;19931;-54
2021/09/19 12:07:26;;;;;;;;;;;;;;;24.85;46.39;101511.47;5064848;28;19932;-53
2021/09/19 12:09:53;;;;;;;;;;;;;;;25.06;45.45;101513.50;5050528;28;19955;-50
2021/09/19 12:12:20;;;;;;;;;;;;;;;25.13;46.86;101515.28;5047747;28;19960;-51
2021/09/19 12:14:48;;;;;;;;;;;;;;;24.42;47.16;101518.06;5065085;28;20007;-53
2021/09/19 12:17:15;;;;;;;;;;;;;;;24.26;47.22;101510.91;5049677;28;20002;-51
2021/09/19 12:19:45;;;;;;;;;;;;;;;23.91;47.73;101504.97;5049892;28;19979;-53
2021/09/19 12:22:16;;;;;;;;;;;;;;;24.41;47.74;101508.31;5049586;28;20360;-52
2021/09/19 12:24:43;;;;;;;;;;;;;;;25.22;45.49;101499.09;5048963;28;20276;-53
2021/09/19 12:27:10;;;;;;;;;;;;;;;25.04;45.76;101492.16;5049104;28;20447;-54
2021/09/19 12:29:38;;;;;;;;;;;;;;;24.95;45.49;101496.78;5049681;28;20704;-48
2021/09/19 12:32:05;;;;;;;;;;;;;;;25.24;45.85;101486.31;5049856;28;19970;-52
2021/09/19 12:34:31;;;;;;;;;;;;;;;25.69;44.05;101486.38;5048368;28;19928;-52
2021/09/19 12:36:59;;;;;;;;;;;;;;;26.01;43.35;101490.56;5049526;28;19929;-50
2021/09/19 12:39:27;;;;;;;;;;;;;;;25.71;43.77;101487.03;5029092;28;19959;-54